Time;durP1;ratioP1;P1;durP2;ratioP2;P2;SDS_P1;SDS_P2;PMS_P1;PMS_P2;Temp;Humidity;BMP_temperature;BMP_pressure;BME280_temperature;BME280_humidity;BME280_pressure;Samples;Min_cycle;Max_cycle;Signal;HPM_P1;HPM_P2
2022/02/22 00:00:20;;;;;;;28.92;6.35;;;5.00;99.90;;;;;;5008574;28;20053;-64
2022/02/22 00:02:48;;;;;;;40.50;7.75;;;5.00;99.90;;;;;;5040983;28;20041;-64
2022/02/22 00:05:14;;;;;;;36.42;7.60;;;4.90;99.90;;;;;;5039643;28;20041;-64
2022/02/22 00:07:41;;;;;;;43.22;7.80;;;4.90;99.90;;;;;;5040966;28;20041;-64
2022/02/22 00:10:09;;;;;;;37.55;7.32;;;4.90;99.90;;;;;;5042651;28;20087;-64
2022/02/22 00:12:35;;;;;;;33.55;7.70;;;4.90;99.90;;;;;;5041467;28;20068;-60
2022/02/22 00:15:02;;;;;;;43.25;7.55;;;4.80;99.90;;;;;;5023984;28;20055;-60
2022/02/22 00:17:28;;;;;;;38.17;7.15;;;4.80;99.90;;;;;;5042097;28;20052;-60
2022/02/22 00:19:54;;;;;;;47.22;8.80;;;4.80;99.90;;;;;;5042419;28;20363;-60
2022/02/22 00:22:21;;;;;;;34.88;6.85;;;4.90;99.90;;;;;;5038740;28;20060;-60
2022/02/22 00:24:47;;;;;;;37.63;7.40;;;4.90;99.90;;;;;;5018695;28;20099;-60
2022/02/22 00:27:13;;;;;;;31.70;7.40;;;4.90;99.90;;;;;;5037219;28;20122;-60
2022/02/22 00:29:39;;;;;;;31.40;6.85;;;4.90;99.90;;;;;;5021137;28;20049;-59
2022/02/22 00:32:05;;;;;;;37.33;7.90;;;4.80;99.90;;;;;;5044423;28;20099;-60
2022/02/22 00:34:31;;;;;;;32.67;6.90;;;4.70;99.90;;;;;;5038169;28;20578;-60
2022/02/22 00:36:57;;;;;;;33.38;8.07;;;4.80;99.90;;;;;;5041325;28;20041;-64
2022/02/22 00:39:23;;;;;;;39.05;8.63;;;4.90;99.90;;;;;;5023675;28;20085;-64
2022/02/22 00:41:50;;;;;;;37.05;8.13;;;4.80;99.90;;;;;;5038555;28;20040;-64
2022/02/22 00:44:16;;;;;;;39.60;7.43;;;4.80;99.90;;;;;;5023560;28;20056;-64
2022/02/22 00:46:42;;;;;;;32.85;6.78;;;4.90;99.90;;;;;;5041852;28;20136;-64
2022/02/22 00:49:08;;;;;;;36.63;7.30;;;4.80;99.90;;;;;;5043513;28;20511;-60
2022/02/22 00:51:35;;;;;;;36.92;7.90;;;4.80;99.90;;;;;;5007318;28;20073;-60
2022/02/22 00:54:02;;;;;;;31.45;6.15;;;4.80;99.90;;;;;;5039996;28;20048;-64
2022/02/22 00:56:28;;;;;;;41.65;6.35;;;4.80;99.90;;;;;;5039284;28;20056;-64
2022/02/22 00:58:54;;;;;;;34.33;6.53;;;4.80;99.90;;;;;;5021682;28;20464;-64
2022/02/22 01:01:20;;;;;;;28.63;5.95;;;4.90;99.90;;;;;;5020412;28;20053;-64
2022/02/22 01:03:46;;;;;;;32.00;6.75;;;4.90;99.90;;;;;;5023786;28;20128;-64
2022/02/22 01:06:12;;;;;;;29.70;5.43;;;4.90;99.90;;;;;;5040626;28;20080;-64
2022/02/22 01:08:39;;;;;;;29.75;5.97;;;4.90;99.90;;;;;;5039213;28;20075;-64
2022/02/22 01:11:06;;;;;;;26.63;5.63;;;4.90;99.90;;;;;;5041336;28;20091;-64
2022/02/22 01:13:32;;;;;;;32.65;5.72;;;4.80;99.90;;;;;;5038124;28;20085;-64
2022/02/22 01:15:58;;;;;;;29.73;5.30;;;4.80;99.90;;;;;;5024850;28;20459;-64
2022/02/22 01:18:24;;;;;;;28.27;6.43;;;4.80;99.90;;;;;;5038162;28;20553;-64
2022/02/22 01:20:51;;;;;;;25.63;5.60;;;4.80;99.90;;;;;;5043118;28;20041;-64
2022/02/22 01:23:17;;;;;;;28.05;4.88;;;4.70;99.90;;;;;;5045628;28;20041;-64
2022/02/22 01:25:43;;;;;;;31.52;6.10;;;4.70;99.90;;;;;;5010858;28;20148;-64
2022/02/22 01:28:09;;;;;;;25.77;5.60;;;4.70;99.90;;;;;;5057594;28;20480;-64
2022/02/22 01:30:36;;;;;;;35.90;6.55;;;4.70;99.90;;;;;;5041476;28;20508;-64
2022/02/22 01:33:02;;;;;;;31.60;6.10;;;4.80;99.90;;;;;;5045538;28;20382;-64
2022/02/22 01:35:28;;;;;;;33.95;6.75;;;4.70;99.90;;;;;;5027890;28;20045;-64
2022/02/22 01:37:54;;;;;;;27.73;5.93;;;4.70;99.90;;;;;;5044049;28;20138;-64
2022/02/22 01:40:21;;;;;;;43.28;6.63;;;4.80;99.90;;;;;;5043899;28;20044;-64
2022/02/22 01:42:47;;;;;;;36.92;6.60;;;4.70;99.90;;;;;;5044134;28;20063;-64
2022/02/22 01:45:13;;;;;;;35.53;6.53;;;4.70;99.90;;;;;;5045648;28;20144;-60
2022/02/22 01:47:39;;;;;;;23.13;5.32;;;4.70;99.90;;;;;;5044944;28;20041;-60
2022/02/22 01:50:08;;;;;;;25.92;6.40;;;4.60;99.90;;;;;;5042351;28;20052;-60
2022/02/22 01:52:34;;;;;;;30.23;6.40;;;4.60;99.90;;;;;;5059426;28;20076;-60
2022/02/22 01:55:00;;;;;;;31.73;6.95;;;4.60;99.90;;;;;;5045539;28;20060;-60
2022/02/22 01:57:26;;;;;;;27.33;5.55;;;4.50;99.90;;;;;;5044388;28;20044;-64
2022/02/22 01:59:53;;;;;;;26.80;6.25;;;4.50;99.90;;;;;;5044207;28;20500;-64
2022/02/22 02:02:19;;;;;;;31.58;6.30;;;4.50;99.90;;;;;;5026963;28;20487;-60
2022/02/22 02:04:45;;;;;;;29.48;5.40;;;4.40;99.90;;;;;;5042017;28;20041;-60
2022/02/22 02:07:12;;;;;;;29.05;6.25;;;4.40;99.90;;;;;;5045526;28;20464;-62
2022/02/22 02:09:38;;;;;;;31.73;6.25;;;4.40;99.90;;;;;;5041902;28;20519;-60
2022/02/22 02:12:04;;;;;;;34.30;6.65;;;4.30;99.90;;;;;;5045288;28;20122;-60
2022/02/22 02:14:31;;;;;;;30.08;5.50;;;4.40;99.90;;;;;;5060889;28;20108;-61
2022/02/22 02:16:58;;;;;;;33.65;6.30;;;4.40;99.90;;;;;;5044738;28;20052;-61
2022/02/22 02:19:24;;;;;;;29.80;5.97;;;4.40;99.90;;;;;;5042393;28;20053;-61
2022/02/22 02:21:51;;;;;;;34.45;6.25;;;4.40;99.90;;;;;;5043030;28;20045;-61
2022/02/22 02:24:22;;;;;;;32.47;6.05;;;4.40;99.90;;;;;;5044678;28;20044;-61
2022/02/22 02:26:50;;;;;;;32.65;6.13;;;4.20;99.90;;;;;;5035343;28;20044;-59
2022/02/22 02:29:18;;;;;;;29.83;5.85;;;4.30;99.90;;;;;;5045024;28;20124;-60
2022/02/22 02:31:46;;;;;;;26.92;6.03;;;4.40;99.90;;;;;;5043206;28;20653;-65
2022/02/22 02:34:15;;;;;;;34.83;6.38;;;4.30;99.90;;;;;;5043939;28;20436;-65
2022/02/22 02:36:43;;;;;;;41.20;7.32;;;4.30;99.90;;;;;;5042287;28;20690;-65
2022/02/22 02:39:13;;;;;;;26.77;6.28;;;4.30;99.90;;;;;;5042176;28;20053;-65
2022/02/22 02:41:46;;;;;;;34.65;6.35;;;4.20;99.90;;;;;;5041638;28;20083;-65
2022/02/22 02:44:16;;;;;;;33.40;6.93;;;4.20;99.90;;;;;;5042212;28;20375;-65
2022/02/22 02:46:43;;;;;;;33.03;6.45;;;4.10;99.90;;;;;;5042500;28;20412;-65
2022/02/22 02:49:10;;;;;;;32.58;6.13;;;4.10;99.90;;;;;;5043057;28;20043;-65
2022/02/22 02:51:37;;;;;;;33.17;5.57;;;4.00;99.90;;;;;;5042905;28;20048;-64
2022/02/22 02:54:04;;;;;;;32.78;6.78;;;4.00;99.90;;;;;;5042820;28;20041;-64
2022/02/22 02:56:30;;;;;;;37.45;6.22;;;4.00;99.90;;;;;;5044642;28;20102;-64
2022/02/22 02:58:59;;;;;;;34.28;6.22;;;4.00;99.90;;;;;;5041775;28;20052;-64
2022/02/22 03:01:27;;;;;;;31.85;6.32;;;4.00;99.90;;;;;;5043064;28;20057;-64
2022/02/22 03:03:53;;;;;;;37.85;6.05;;;4.00;99.90;;;;;;5044872;28;20071;-63
2022/02/22 03:06:20;;;;;;;31.83;6.80;;;3.90;99.90;;;;;;5044185;28;20060;-65
2022/02/22 03:08:46;;;;;;;27.23;6.18;;;3.90;99.90;;;;;;5043833;28;20044;-65
2022/02/22 03:11:12;;;;;;;22.20;5.57;;;3.90;99.90;;;;;;5044419;28;20110;-65
2022/02/22 03:13:39;;;;;;;32.35;5.75;;;3.80;99.90;;;;;;5035030;28;20063;-64
2022/02/22 03:16:06;;;;;;;29.80;5.35;;;3.80;99.90;;;;;;5045275;28;20076;-64
2022/02/22 03:18:33;;;;;;;27.67;5.88;;;3.80;99.90;;;;;;5043093;28;20138;-64
2022/02/22 03:20:59;;;;;;;25.17;6.32;;;3.90;99.90;;;;;;5043914;28;20053;-67
2022/02/22 03:23:25;;;;;;;25.65;5.07;;;3.80;99.90;;;;;;5041567;28;20527;-66
2022/02/22 03:25:52;;;;;;;34.10;5.57;;;3.80;99.90;;;;;;5043938;28;20041;-65
2022/02/22 03:28:18;;;;;;;27.15;4.57;;;3.70;99.90;;;;;;5044902;28;20048;-66
2022/02/22 03:30:45;;;;;;;27.35;5.53;;;3.70;99.90;;;;;;5042642;28;20056;-65
2022/02/22 03:33:12;;;;;;;28.60;5.95;;;3.70;99.90;;;;;;5008870;28;20064;-65
2022/02/22 03:35:39;;;;;;;23.40;5.38;;;3.70;99.90;;;;;;5043709;28;20497;-61
2022/02/22 03:38:06;;;;;;;41.17;7.13;;;3.60;99.90;;;;;;5025051;28;20057;-65
2022/02/22 03:40:32;;;;;;;23.67;5.45;;;3.60;99.90;;;;;;5042797;28;20559;-59
2022/02/22 03:42:58;;;;;;;24.70;5.45;;;3.60;99.90;;;;;;5040962;28;20044;-58
2022/02/22 03:45:25;;;;;;;29.65;6.05;;;3.60;99.90;;;;;;5042180;28;20086;-63
2022/02/22 03:47:51;;;;;;;31.90;5.70;;;3.60;99.90;;;;;;5041713;28;20044;-64
2022/02/22 03:50:18;;;;;;;31.52;6.18;;;3.60;99.90;;;;;;5042205;28;20095;-63
2022/02/22 03:52:44;;;;;;;34.47;6.05;;;3.60;99.90;;;;;;5040788;28;20049;-59
2022/02/22 03:55:12;;;;;;;31.80;5.63;;;3.60;99.90;;;;;;5044259;28;20507;-59
2022/02/22 03:57:38;;;;;;;30.98;6.10;;;3.60;99.90;;;;;;5043320;28;20056;-59
2022/02/22 04:00:17;;;;;;;23.88;5.43;;;3.60;99.90;;;;;;5042976;28;20441;-63
2022/02/22 04:02:44;;;;;;;28.42;5.13;;;3.60;99.90;;;;;;5041134;28;20040;-63
2022/02/22 04:05:10;;;;;;;33.15;5.70;;;3.60;99.90;;;;;;5044293;28;20045;-59
2022/02/22 04:07:37;;;;;;;33.72;5.20;;;3.60;99.90;;;;;;5058045;28;20047;-63
2022/02/22 04:10:05;;;;;;;31.45;5.38;;;3.60;99.90;;;;;;5040664;28;20128;-59
2022/02/22 04:12:32;;;;;;;29.52;6.63;;;3.50;99.90;;;;;;5040026;28;20049;-63
2022/02/22 04:14:58;;;;;;;29.35;6.38;;;3.50;99.90;;;;;;5024685;28;20579;-59
2022/02/22 04:17:24;;;;;;;27.08;4.85;;;3.50;99.90;;;;;;5041706;28;20520;-61
2022/02/22 04:19:50;;;;;;;32.60;6.32;;;3.50;99.90;;;;;;5024689;28;20068;-59
2022/02/22 04:22:17;;;;;;;28.23;4.93;;;3.50;99.90;;;;;;5041391;28;20306;-61
2022/02/22 04:24:43;;;;;;;27.40;4.35;;;3.50;99.90;;;;;;5039620;28;20136;-59
2022/02/22 04:27:09;;;;;;;32.10;5.60;;;3.50;99.90;;;;;;5042757;28;20088;-61
2022/02/22 04:29:36;;;;;;;22.90;5.07;;;3.60;99.90;;;;;;5040495;28;20057;-58
2022/02/22 04:32:03;;;;;;;39.38;6.38;;;3.60;99.90;;;;;;5040041;28;20087;-59
2022/02/22 04:34:29;;;;;;;29.35;5.28;;;3.60;99.90;;;;;;5003689;28;20591;-59
2022/02/22 04:36:55;;;;;;;23.70;4.60;;;3.60;99.90;;;;;;5038882;28;20040;-61
2022/02/22 04:39:21;;;;;;;27.92;5.88;;;3.60;99.90;;;;;;5040490;28;20045;-63
2022/02/22 04:41:47;;;;;;;27.73;5.45;;;3.60;99.90;;;;;;5042489;28;20049;-59
2022/02/22 04:44:13;;;;;;;31.08;5.25;;;3.50;99.90;;;;;;5040887;28;20049;-60
2022/02/22 04:46:40;;;;;;;25.33;5.65;;;3.50;99.90;;;;;;5041125;28;20399;-63
2022/02/22 04:49:09;;;;;;;26.83;5.78;;;3.50;99.90;;;;;;5024645;28;20571;-59
2022/02/22 04:51:41;;;;;;;32.53;5.10;;;3.50;99.90;;;;;;5042649;28;20462;-59
2022/02/22 04:54:10;;;;;;;25.35;4.55;;;3.50;99.90;;;;;;5022936;28;20041;-65
2022/02/22 04:56:36;;;;;;;27.17;5.68;;;3.50;99.90;;;;;;5055525;28;20059;-59
2022/02/22 04:59:03;;;;;;;27.50;5.80;;;3.50;99.90;;;;;;5041726;28;20063;-62
2022/02/22 05:01:29;;;;;;;28.80;4.95;;;3.50;99.90;;;;;;5041348;28;20078;-59
2022/02/22 05:03:55;;;;;;;25.85;5.43;;;3.50;99.90;;;;;;5040447;28;20107;-61
2022/02/22 05:06:21;;;;;;;30.83;5.40;;;3.50;99.90;;;;;;5039403;28;20048;-65
2022/02/22 05:08:47;;;;;;;30.30;5.13;;;3.50;99.90;;;;;;5024433;28;20425;-59
2022/02/22 05:11:13;;;;;;;35.15;6.18;;;3.50;99.90;;;;;;5041729;28;20049;-63
2022/02/22 05:13:39;;;;;;;26.00;4.80;;;3.40;99.90;;;;;;5040034;28;20106;-63
2022/02/22 05:16:06;;;;;;;30.27;4.95;;;3.50;99.90;;;;;;5040194;28;20504;-63
2022/02/22 05:18:32;;;;;;;36.15;5.78;;;3.40;99.90;;;;;;5040445;28;20045;-63
2022/02/22 05:20:58;;;;;;;31.58;6.07;;;3.40;99.90;;;;;;5041310;28;20411;-63
2022/02/22 05:23:28;;;;;;;27.25;5.00;;;3.40;99.90;;;;;;5033270;28;20048;-63
2022/02/22 05:25:54;;;;;;;29.45;5.82;;;3.40;99.90;;;;;;5022413;28;20045;-63
2022/02/22 05:28:23;;;;;;;24.67;5.43;;;3.40;99.90;;;;;;5039690;28;20124;-63
2022/02/22 05:30:50;;;;;;;30.90;4.95;;;3.30;99.90;;;;;;5023232;28;20107;-64
2022/02/22 05:33:17;;;;;;;25.73;5.13;;;3.30;99.90;;;;;;4996327;28;20057;-64
2022/02/22 05:35:45;;;;;;;33.97;6.10;;;3.30;99.90;;;;;;5017016;28;20052;-64
2022/02/22 05:38:11;;;;;;;30.08;5.40;;;3.20;99.90;;;;;;5031619;28;20562;-63
2022/02/22 05:40:37;;;;;;;28.60;5.38;;;3.30;99.90;;;;;;5041079;28;20061;-64
2022/02/22 05:43:04;;;;;;;35.63;6.38;;;3.20;99.90;;;;;;5039465;28;20047;-64
2022/02/22 05:45:30;;;;;;;36.70;6.07;;;3.30;99.90;;;;;;5027229;28;20049;-64
2022/02/22 05:47:56;;;;;;;32.15;5.50;;;3.40;99.90;;;;;;5035680;28;20248;-64
2022/02/22 05:50:23;;;;;;;31.98;5.50;;;3.40;99.90;;;;;;5038862;28;20059;-63
2022/02/22 05:52:49;;;;;;;25.38;5.80;;;3.40;99.90;;;;;;5053707;28;20080;-64
2022/02/22 05:55:15;;;;;;;35.97;5.93;;;3.40;99.90;;;;;;5037459;28;20049;-64
2022/02/22 05:57:41;;;;;;;27.58;5.72;;;3.40;99.90;;;;;;5036990;28;20040;-59
2022/02/22 06:00:09;;;;;;;28.23;6.10;;;3.40;99.90;;;;;;5021032;28;20049;-59
2022/02/22 06:02:35;;;;;;;32.97;6.32;;;3.40;99.90;;;;;;5032737;28;20049;-59
2022/02/22 06:05:01;;;;;;;35.85;6.25;;;3.40;99.90;;;;;;5035994;28;20432;-59
2022/02/22 06:07:29;;;;;;;43.80;7.03;;;3.40;99.90;;;;;;5041535;28;20052;-60
2022/02/22 06:09:55;;;;;;;30.02;5.40;;;3.30;99.90;;;;;;5024584;28;20049;-64
2022/02/22 06:12:22;;;;;;;30.52;7.45;;;3.30;99.90;;;;;;5008693;28;20049;-64
2022/02/22 06:14:48;;;;;;;28.65;6.07;;;3.30;99.90;;;;;;5038397;28;20051;-64
2022/02/22 06:17:14;;;;;;;29.42;6.07;;;3.30;99.90;;;;;;5042672;28;20397;-64
2022/02/22 06:19:40;;;;;;;30.85;6.68;;;3.20;99.90;;;;;;5043428;28;20503;-59
2022/02/22 06:22:07;;;;;;;25.27;5.18;;;3.20;99.90;;;;;;5043479;28;20118;-59
2022/02/22 06:24:33;;;;;;;43.13;6.93;;;3.10;99.90;;;;;;5041679;28;20088;-59
2022/02/22 06:26:59;;;;;;;33.85;6.75;;;3.10;99.90;;;;;;5024650;28;20045;-59
2022/02/22 06:29:26;;;;;;;37.58;6.13;;;3.00;99.90;;;;;;5042332;28;20095;-60
2022/02/22 06:31:52;;;;;;;29.55;5.65;;;3.00;99.90;;;;;;5024994;28;20052;-60
2022/02/22 06:34:18;;;;;;;25.10;5.10;;;3.00;99.90;;;;;;5040985;28;20077;-60
2022/02/22 06:36:44;;;;;;;28.58;5.75;;;2.90;99.90;;;;;;5041269;28;20045;-60
2022/02/22 06:39:11;;;;;;;38.65;6.10;;;2.90;99.90;;;;;;5041658;28;20049;-60
2022/02/22 06:41:37;;;;;;;31.50;6.20;;;2.90;99.90;;;;;;5041332;28;20353;-60
2022/02/22 06:44:04;;;;;;;38.65;6.47;;;2.90;99.90;;;;;;5041212;28;20555;-60
2022/02/22 06:46:30;;;;;;;32.92;5.93;;;2.80;99.90;;;;;;5042641;28;20127;-60
2022/02/22 06:48:56;;;;;;;25.67;5.43;;;2.80;99.90;;;;;;5024760;28;20052;-60
2022/02/22 06:51:22;;;;;;;31.85;5.60;;;2.90;99.90;;;;;;5042848;28;20520;-61
2022/02/22 06:53:48;;;;;;;36.85;7.03;;;2.90;99.90;;;;;;5041394;28;20052;-60
2022/02/22 06:56:14;;;;;;;38.80;5.60;;;2.90;99.90;;;;;;5041654;28;20052;-60
2022/02/22 06:58:40;;;;;;;37.85;6.15;;;3.00;99.90;;;;;;5042457;28;20170;-60
2022/02/22 07:01:06;;;;;;;38.38;6.18;;;3.00;99.90;;;;;;5040600;28;20055;-64
2022/02/22 07:03:32;;;;;;;34.70;5.75;;;3.00;99.90;;;;;;5041679;28;20511;-65
2022/02/22 07:05:59;;;;;;;35.85;6.25;;;3.00;99.90;;;;;;5025227;28;20048;-64
2022/02/22 07:08:25;;;;;;;32.83;5.72;;;3.10;99.90;;;;;;5042373;28;20041;-65
2022/02/22 07:10:51;;;;;;;32.58;6.63;;;3.10;99.90;;;;;;5039454;28;20055;-65
2022/02/22 07:13:17;;;;;;;33.15;6.13;;;3.20;99.90;;;;;;5040391;28;20563;-65
2022/02/22 07:15:43;;;;;;;33.20;6.22;;;3.20;99.90;;;;;;5040247;28;20365;-65
2022/02/22 07:18:10;;;;;;;41.72;6.72;;;3.20;99.90;;;;;;5039465;28;20052;-64
2022/02/22 07:20:37;;;;;;;41.15;7.50;;;3.20;99.90;;;;;;5036746;28;20045;-65
2022/02/22 07:23:04;;;;;;;34.33;6.95;;;3.20;99.90;;;;;;5039238;28;20040;-64
2022/02/22 07:25:32;;;;;;;47.78;8.38;;;3.30;99.90;;;;;;5040954;28;20507;-65
2022/02/22 07:28:00;;;;;;;45.35;6.93;;;3.30;99.90;;;;;;5039973;28;20056;-64
2022/02/22 07:30:27;;;;;;;41.95;7.35;;;3.40;99.90;;;;;;5039906;28;20102;-65
2022/02/22 07:32:57;;;;;;;45.38;6.78;;;3.50;99.90;;;;;;5020891;28;20052;-64
2022/02/22 07:35:24;;;;;;;39.38;8.30;;;3.60;99.90;;;;;;5041707;28;20057;-64
2022/02/22 07:37:50;;;;;;;39.13;5.72;;;3.70;99.90;;;;;;5022817;28;20049;-64
2022/02/22 07:40:19;;;;;;;41.42;7.38;;;3.80;99.90;;;;;;5039005;28;20508;-64
2022/02/22 07:42:45;;;;;;;35.88;6.35;;;3.90;99.90;;;;;;5038903;28;20041;-64
2022/02/22 07:45:14;;;;;;;27.98;5.88;;;3.90;99.90;;;;;;5039919;28;20179;-65
2022/02/22 07:47:41;;;;;;;33.80;5.88;;;4.00;99.90;;;;;;5039767;28;20458;-64
2022/02/22 07:50:09;;;;;;;36.33;6.40;;;4.20;99.90;;;;;;5021181;28;20388;-63
2022/02/22 07:52:36;;;;;;;36.25;6.18;;;4.20;99.90;;;;;;5037798;28;20536;-63
2022/02/22 07:55:04;;;;;;;25.83;5.18;;;4.30;99.90;;;;;;5037969;28;20171;-63
2022/02/22 07:57:31;;;;;;;35.55;7.65;;;4.30;99.90;;;;;;5038660;28;20056;-63
2022/02/22 07:59:58;;;;;;;36.40;6.35;;;4.60;99.90;;;;;;5049735;28;20049;-64
2022/02/22 08:02:24;;;;;;;34.05;7.18;;;5.00;99.90;;;;;;5040738;28;20041;-64
2022/02/22 08:04:50;;;;;;;37.47;6.50;;;5.00;99.90;;;;;;5022342;28;20122;-63
2022/02/22 08:07:20;;;;;;;27.30;5.30;;;5.20;99.90;;;;;;5023549;28;20053;-63
2022/02/22 08:09:49;;;;;;;28.70;5.57;;;5.30;99.90;;;;;;5039248;28;20106;-63
2022/02/22 08:12:15;;;;;;;23.73;5.18;;;5.50;99.90;;;;;;5037505;28;20048;-63
2022/02/22 08:14:42;;;;;;;27.60;5.78;;;5.80;99.90;;;;;;5040068;28;20115;-64
2022/02/22 08:17:08;;;;;;;24.83;4.88;;;6.10;99.90;;;;;;5022490;28;20451;-63
2022/02/22 08:19:34;;;;;;;24.38;5.35;;;6.30;99.90;;;;;;5039315;28;20059;-63
2022/02/22 08:22:00;;;;;;;32.38;6.35;;;6.50;99.90;;;;;;5040692;28;20052;-63
2022/02/22 08:24:27;;;;;;;26.70;6.63;;;6.80;99.90;;;;;;5040513;28;20509;-63
2022/02/22 08:26:54;;;;;;;31.10;6.20;;;7.10;99.90;;;;;;5040654;28;20040;-64
2022/02/22 08:29:21;;;;;;;24.67;5.57;;;7.30;99.90;;;;;;5039478;28;20064;-63
2022/02/22 08:31:47;;;;;;;24.05;6.57;;;7.30;99.90;;;;;;5041321;28;20044;-63
2022/02/22 08:34:14;;;;;;;29.10;6.97;;;7.40;99.90;;;;;;5038495;28;20048;-62
2022/02/22 08:36:40;;;;;;;28.00;6.50;;;7.30;99.90;;;;;;5036841;28;20042;-64
2022/02/22 08:39:06;;;;;;;33.85;6.55;;;7.50;99.90;;;;;;5038895;28;20045;-65
2022/02/22 08:41:32;;;;;;;20.70;5.22;;;7.60;99.90;;;;;;5036215;28;20095;-64
2022/02/22 08:44:00;;;;;;;21.77;5.45;;;7.40;99.90;;;;;;5021945;28;20053;-65
2022/02/22 08:46:27;;;;;;;24.27;6.07;;;7.40;99.90;;;;;;5040017;28;20049;-64
2022/02/22 08:48:53;;;;;;;26.15;5.68;;;7.60;99.90;;;;;;5042166;28;20055;-65
2022/02/22 08:51:20;;;;;;;22.98;4.45;;;7.90;99.90;;;;;;5040738;28;20084;-65
2022/02/22 08:53:46;;;;;;;27.65;5.03;;;8.40;99.90;;;;;;5035917;28;20504;-65
2022/02/22 08:56:13;;;;;;;23.08;5.22;;;8.60;99.90;;;;;;5038003;28;20055;-68
2022/02/22 08:58:40;;;;;;;26.27;5.45;;;8.50;99.90;;;;;;5038472;28;20055;-66
2022/02/22 09:01:07;;;;;;;23.55;4.75;;;8.00;99.90;;;;;;5038281;28;20045;-62
2022/02/22 09:03:33;;;;;;;22.67;5.45;;;7.70;99.90;;;;;;5040820;28;20037;-67
2022/02/22 09:06:00;;;;;;;23.48;5.25;;;7.30;99.90;;;;;;5039389;28;20412;-62
2022/02/22 09:08:27;;;;;;;19.42;5.60;;;7.10;99.90;;;;;;5040538;28;20069;-65
2022/02/22 09:10:53;;;;;;;26.85;5.57;;;6.80;99.90;;;;;;5041424;28;20048;-65
2022/02/22 09:13:20;;;;;;;25.60;5.47;;;6.70;99.90;;;;;;5024390;28;20450;-61
2022/02/22 09:15:49;;;;;;;30.05;6.90;;;6.70;99.90;;;;;;5041860;28;20138;-61
2022/02/22 09:18:16;;;;;;;30.13;6.50;;;6.60;99.90;;;;;;5038517;28;20101;-65
2022/02/22 09:20:43;;;;;;;25.83;5.90;;;6.60;99.90;;;;;;5039229;28;20048;-61
2022/02/22 09:23:09;;;;;;;26.73;6.05;;;6.60;99.90;;;;;;5041347;28;20125;-61
2022/02/22 09:25:36;;;;;;;23.08;6.05;;;6.60;99.90;;;;;;5039586;28;20033;-65
2022/02/22 09:28:06;;;;;;;21.88;5.95;;;6.60;99.90;;;;;;5041363;28;20090;-65
2022/02/22 09:30:34;;;;;;;27.73;6.85;;;6.50;99.90;;;;;;5038608;28;20565;-65
2022/02/22 09:33:01;;;;;;;27.75;7.45;;;6.50;99.90;;;;;;4991871;28;20087;-65
2022/02/22 09:35:28;;;;;;;25.13;8.07;;;6.60;99.90;;;;;;5039928;28;20041;-65
2022/02/22 09:37:56;;;;;;;30.85;8.27;;;6.60;99.90;;;;;;5040705;28;20567;-65
2022/02/22 09:40:24;;;;;;;27.80;10.07;;;6.60;99.90;;;;;;5023630;28;20072;-62
2022/02/22 09:42:50;;;;;;;26.50;8.60;;;6.60;99.90;;;;;;5043331;28;20227;-64
2022/02/22 09:45:17;;;;;;;30.20;7.82;;;6.60;99.90;;;;;;5027413;28;20801;-64
2022/02/22 09:47:45;;;;;;;29.90;9.48;;;6.70;99.90;;;;;;5026779;28;20076;-64
2022/02/22 09:50:12;;;;;;;30.65;8.60;;;6.70;99.90;;;;;;5045176;28;20049;-64
2022/02/22 09:52:38;;;;;;;33.67;9.68;;;6.70;99.90;;;;;;5043874;28;20107;-64
2022/02/22 09:55:06;;;;;;;33.30;7.68;;;6.70;99.90;;;;;;5043865;28;20073;-62
2022/02/22 09:57:33;;;;;;;42.67;10.20;;;6.70;99.90;;;;;;5043272;28;20040;-64
2022/02/22 09:59:59;;;;;;;32.33;7.47;;;6.80;99.90;;;;;;5042948;28;20482;-64
2022/02/22 10:02:36;;;;;;;32.92;8.35;;;6.80;99.90;;;;;;5043483;28;20040;-62
2022/02/22 10:05:14;;;;;;;30.23;8.18;;;6.80;99.90;;;;;;5041594;28;20499;-65
2022/02/22 10:08:09;;;;;;;32.03;8.82;;;6.90;99.90;;;;;;5044317;28;20044;-65
2022/02/22 10:10:40;;;;;;;26.50;7.90;;;7.00;99.90;;;;;;5040510;28;20044;-65
2022/02/22 10:13:16;;;;;;;29.35;7.22;;;7.00;99.90;;;;;;5043198;28;20099;-63
2022/02/22 10:15:44;;;;;;;30.67;7.80;;;7.00;99.90;;;;;;5043289;28;20324;-64
2022/02/22 10:18:11;;;;;;;25.38;6.97;;;7.00;99.90;;;;;;5042588;28;20084;-62
2022/02/22 10:20:38;;;;;;;31.27;8.63;;;7.00;99.90;;;;;;5044376;28;20041;-62
2022/02/22 10:23:06;;;;;;;32.95;8.05;;;7.10;99.90;;;;;;5044276;28;20087;-64
2022/02/22 10:25:33;;;;;;;29.45;7.97;;;7.10;99.90;;;;;;5025273;28;20056;-64
2022/02/22 10:28:00;;;;;;;34.67;8.65;;;7.10;99.90;;;;;;5044463;28;20037;-64
2022/02/22 10:30:28;;;;;;;33.05;8.30;;;7.20;99.90;;;;;;5042868;28;20045;-64
2022/02/22 10:32:55;;;;;;;24.55;7.32;;;7.20;99.90;;;;;;5043708;28;20612;-64
2022/02/22 10:35:32;;;;;;;29.98;8.20;;;7.30;99.90;;;;;;5042879;28;20423;-65
2022/02/22 10:37:59;;;;;;;32.55;8.50;;;7.30;99.90;;;;;;5044519;28;20072;-63
2022/02/22 10:40:30;;;;;;;30.42;8.98;;;7.40;99.90;;;;;;5026341;28;20076;-63
2022/02/22 10:42:57;;;;;;;29.15;8.27;;;7.50;99.90;;;;;;5042247;28;20795;-63
2022/02/22 10:45:24;;;;;;;28.13;7.82;;;7.50;99.90;;;;;;5042442;28;20148;-63
2022/02/22 10:47:51;;;;;;;30.23;8.40;;;7.60;99.90;;;;;;5044825;28;20056;-63
2022/02/22 10:50:31;;;;;;;24.25;8.25;;;7.70;99.90;;;;;;5043319;28;20044;-63
2022/02/22 10:53:09;;;;;;;26.63;8.88;;;7.70;99.90;;;;;;5042415;28;20131;-63
2022/02/22 10:55:35;;;;;;;24.63;7.28;;;7.70;99.90;;;;;;5042328;28;20740;-63
2022/02/22 10:58:02;;;;;;;28.83;7.57;;;7.60;99.90;;;;;;5023665;28;20102;-63
2022/02/22 11:00:28;;;;;;;22.98;7.18;;;7.60;99.90;;;;;;5043492;28;20562;-63
2022/02/22 11:02:54;;;;;;;33.95;7.97;;;7.60;99.90;;;;;;5044491;28;20066;-61
2022/02/22 11:05:20;;;;;;;28.20;7.28;;;7.60;99.90;;;;;;5043271;28;20149;-63
2022/02/22 11:07:52;;;;;;;34.13;8.45;;;7.60;99.90;;;;;;5044004;28;20041;-63
2022/02/22 11:10:20;;;;;;;28.08;7.65;;;7.70;99.90;;;;;;5025964;28;20051;-63
2022/02/22 11:12:54;;;;;;;26.80;8.82;;;7.70;99.90;;;;;;5043287;28;20128;-63
2022/02/22 11:15:35;;;;;;;26.10;7.50;;;7.70;99.90;;;;;;4993284;28;20052;-63
2022/02/22 11:18:14;;;;;;;30.90;8.07;;;7.70;99.90;;;;;;5043267;28;20096;-63
2022/02/22 11:20:41;;;;;;;31.40;8.88;;;7.60;99.90;;;;;;5041911;28;20067;-63
2022/02/22 11:23:09;;;;;;;28.83;7.80;;;7.60;99.90;;;;;;5041938;28;20041;-63
2022/02/22 11:25:39;;;;;;;28.80;8.13;;;7.60;99.90;;;;;;5042852;28;20132;-63
2022/02/22 11:28:08;;;;;;;35.20;7.63;;;7.60;99.90;;;;;;5042425;28;20116;-63
2022/02/22 11:30:35;;;;;;;27.60;8.07;;;7.60;99.90;;;;;;5042360;28;20080;-63
2022/02/22 11:33:15;;;;;;;25.77;7.53;;;7.60;99.90;;;;;;5040227;28;20396;-63
2022/02/22 11:35:57;;;;;;;25.00;7.43;;;7.60;99.90;;;;;;5041906;28;20057;-63
2022/02/22 11:38:27;;;;;;;24.25;6.85;;;7.70;99.90;;;;;;5042079;28;20055;-63
2022/02/22 11:40:54;;;;;;;33.78;7.32;;;7.70;99.90;;;;;;5024290;28;20068;-63
2022/02/22 11:43:30;;;;;;;27.25;7.50;;;7.70;99.90;;;;;;5040646;28;20653;-63
2022/02/22 11:46:07;;;;;;;22.55;6.80;;;7.70;99.90;;;;;;5040506;28;20060;-64
2022/02/22 11:48:34;;;;;;;28.35;6.57;;;7.70;99.90;;;;;;5042216;28;20037;-63
2022/02/22 11:51:11;;;;;;;29.20;7.40;;;7.70;99.90;;;;;;5007949;28;20057;-63
2022/02/22 11:53:37;;;;;;;30.70;7.53;;;7.60;99.90;;;;;;5022266;28;20098;-63
2022/02/22 11:56:04;;;;;;;28.58;7.78;;;7.60;99.90;;;;;;5006085;28;20143;-64
2022/02/22 11:58:36;;;;;;;29.73;8.27;;;7.50;99.90;;;;;;5039497;28;20067;-65
2022/02/22 12:01:06;;;;;;;39.47;8.65;;;7.50;99.90;;;;;;5038678;28;20048;-64
2022/02/22 12:03:46;;;;;;;32.45;7.60;;;7.40;99.90;;;;;;5039277;28;20052;-64
2022/02/22 12:06:12;;;;;;;37.47;8.27;;;7.30;99.90;;;;;;5039810;28;20083;-64
2022/02/22 12:08:41;;;;;;;28.83;8.00;;;7.20;99.90;;;;;;5039721;28;20454;-64
2022/02/22 12:11:16;;;;;;;34.78;8.50;;;7.20;99.90;;;;;;5041488;28;20076;-64
2022/02/22 12:13:50;;;;;;;39.72;9.98;;;7.10;99.90;;;;;;5038170;28;20061;-65
2022/02/22 12:16:20;;;;;;;32.40;8.93;;;7.10;99.90;;;;;;5039482;28;20717;-64
2022/02/22 12:18:48;;;;;;;25.33;8.52;;;7.10;99.90;;;;;;5039764;28;20075;-67
2022/02/22 12:21:17;;;;;;;28.92;9.07;;;7.00;99.90;;;;;;5038374;28;20098;-64
2022/02/22 12:23:44;;;;;;;32.75;9.20;;;7.00;99.90;;;;;;5040140;28;20045;-64
2022/02/22 12:26:14;;;;;;;38.83;11.20;;;7.00;99.90;;;;;;5034205;28;20060;-64
2022/02/22 12:28:48;;;;;;;29.58;9.50;;;7.00;99.90;;;;;;5038608;28;20245;-65
2022/02/22 12:31:28;;;;;;;32.58;9.20;;;7.10;99.90;;;;;;5040291;28;20465;-64
2022/02/22 12:33:59;;;;;;;36.53;10.68;;;7.10;99.90;;;;;;5038420;28;20041;-65
2022/02/22 12:36:27;;;;;;;42.17;10.85;;;7.20;99.90;;;;;;5041771;28;20049;-64
2022/02/22 12:38:58;;;;;;;42.50;10.88;;;7.30;99.90;;;;;;5040924;28;20045;-64
2022/02/22 12:41:26;;;;;;;34.23;11.13;;;7.30;99.90;;;;;;5023501;28;20052;-64
2022/02/22 12:43:53;;;;;;;36.13;11.77;;;7.30;99.90;;;;;;5024100;28;20415;-64
2022/02/22 12:46:21;;;;;;;32.45;10.50;;;7.40;99.90;;;;;;5042501;28;20075;-62